Latest Weather Observations for Cairns Racecourse

IDQ60801

Issued at 7:02 pm EST Saturday 23 July 2016 (issued every 30 minutes, with the page automatically refreshed every 10 minutes)

About weather observations | Map of weather stations | Latest weather observations for QLD | Other Formats
Station Details ID: 031222 Name: CAIRNS RACECOURSE Lat: -16.95 Lon: 145.75 Height: 4.1 m
Data from the previous 72 hours. | See also: Recent months at Cairns Racecourse
Date/Time
EST
Temp
°C
App
Temp
°C
Dew
Point
°C
Rel
Hum
%
Delta-T
°C
Wind Press
QNH
hPa
Press
MSL
hPa
Rain since
9am
mm
Dir  Spd
km/h
Gust
km/h
Spd
kts
Gust
kts
23/07:00pm 21.9 25.0 19.5 86 1.5 S 2 7 1 4 - - 0.2
23/06:30pm 23.1 25.1 19.9 82 2.1 SE 9 17 5 9 - - 0.2
23/06:00pm 23.5 25.2 19.4 78 2.6 SE 9 15 5 8 - - 0.2
23/05:30pm 24.3 25.5 19.1 73 3.3 ESE 11 17 6 9 - - 0.2
23/05:00pm 25.6 26.5 19.3 68 4.0 SE 13 19 7 10 - - 0.2
23/04:30pm 26.1 27.1 19.5 67 4.3 SE 13 17 7 9 - - 0.2
23/04:00pm 26.1 26.4 18.8 64 4.7 SE 15 19 8 10 - - 0.2
23/03:30pm 27.1 27.8 18.9 61 5.3 SE 13 19 7 10 - - 0.2
23/03:00pm 27.2 28.4 19.0 61 5.3 SE 11 17 6 9 - - 0.2
23/02:30pm 27.1 28.2 18.9 61 5.3 SE 11 15 6 8 - - 0.2
23/02:00pm 26.6 28.6 19.2 64 4.8 ESE 7 13 4 7 - - 0.2
23/01:30pm 26.6 28.0 18.7 62 5.0 E 9 13 5 7 - - 0.2
23/01:00pm 27.9 30.2 20.7 65 4.8 ESE 9 17 5 9 - - 0.2
23/12:30pm 27.4 28.6 20.0 64 4.8 ESE 13 17 7 9 - - 0.2
23/12:00pm 26.9 28.3 19.5 64 4.8 SSE 11 17 6 9 - - 0.2
23/11:30am 26.8 28.1 19.4 64 4.8 SSE 11 15 6 8 - - 0.2
23/11:00am 25.6 26.9 19.3 68 4.0 SSE 11 15 6 8 - - 0.0
23/10:30am 25.4 26.7 19.3 69 3.9 S 11 17 6 9 - - 0.0
23/10:00am 24.1 25.4 19.2 74 3.1 SSE 11 17 6 9 - - 0.0
23/09:30am 22.9 24.7 19.5 81 2.2 SSE 9 11 5 6 - - 0.0
23/09:00am 21.4 23.2 18.8 85 1.6 SSE 7 9 4 5 - - 0.0
23/08:30am 20.0 21.5 18.1 89 1.2 S 7 9 4 5 - - 0.0
23/08:00am 19.0 20.0 17.8 93 0.7 S 9 13 5 7 - - 0.0
23/07:30am 17.9 19.1 17.3 96 0.4 SSW 7 11 4 6 - - 0.0
23/07:00am 17.3 18.3 16.8 97 0.3 S 7 9 4 5 - - 0.0
23/06:30am 17.3 18.3 16.8 97 0.3 SSW 7 11 4 6 - - 0.0
23/06:00am 17.2 18.1 16.6 96 0.4 SSW 7 11 4 6 - - 0.0
23/05:30am 17.5 18.7 16.9 96 0.4 SE 6 7 3 4 - - 0.0
23/05:00am 17.7 18.4 17.1 96 0.4 S 9 11 5 6 - - 0.0
23/04:30am 17.6 19.2 17.0 96 0.4 S 4 7 2 4 - - 0.0
23/04:00am 17.7 18.8 17.1 96 0.4 SW 7 9 4 5 - - 0.0
23/03:30am 17.9 20.0 17.3 96 0.4 SSW 2 7 1 4 - - 0.0
23/03:00am 18.1 19.6 17.5 96 0.4 SSW 6 9 3 5 - - 0.0
23/02:30am 18.2 19.1 17.6 96 0.4 SSW 9 11 5 6 - - 0.0
23/02:00am 18.4 19.8 17.8 96 0.4 SSW 7 9 4 5 - - 0.0
23/01:30am 18.8 20.9 18.0 95 0.5 SSW 4 9 2 5 - - 0.0
23/01:00am 19.2 20.9 18.5 96 0.4 SSE 7 11 4 6 - - 0.0
23/12:30am 19.4 21.2 18.7 96 0.4 S 7 11 4 6 - - 0.0
23/12:00am 18.8 21.1 17.8 94 0.6 SSE 2 7 1 4 - - 0.0
 
Date/Time
EST
Temp
°C
App
Temp
°C
Dew
Point
°C
Rel
Hum
%
Delta-T
°C
Wind Press
QNH
hPa
Press
MSL
hPa
Rain since
9am
mm
Dir  Spd
km/h
Gust
km/h
Spd
kts
Gust
kts
22/11:30pm 18.8 21.4 17.6 93 0.7 CALM 0 6 0 3 - - 0.0
22/11:00pm 19.7 22.3 18.4 92 0.8 S 2 7 1 4 - - 0.0
22/10:30pm 20.2 22.1 18.9 92 0.8 SE 7 11 4 6 - - 0.0
22/10:00pm 20.3 22.2 19.0 92 0.8 SSW 7 9 4 5 - - 0.0
22/09:30pm 20.2 22.1 18.5 90 1.1 S 6 7 3 4 - - 0.0
22/09:00pm 20.9 22.9 19.2 90 1.1 S 7 9 4 5 - - 0.0
22/08:30pm 20.9 23.0 19.4 91 1.0 S 7 11 4 6 - - 0.0
22/08:00pm 20.9 24.1 18.8 88 1.3 CALM 0 0 0 0 - - 0.0
22/07:30pm 21.3 23.4 19.0 87 1.5 SSW 6 9 3 5 - - 0.0
22/07:00pm 22.0 23.7 19.4 85 1.7 SSW 9 11 5 6 - - 0.0
22/06:30pm 23.2 24.4 19.8 81 2.2 SE 13 20 7 11 - - 0.0
22/06:00pm 23.4 24.6 19.8 80 2.3 SE 13 20 7 11 - - 0.0
22/05:30pm 24.2 25.0 19.1 73 3.3 SE 13 20 7 11 - - 0.0
22/05:00pm 25.2 25.6 18.9 68 4.0 ESE 15 26 8 14 - - 0.0
22/04:30pm 25.6 25.5 18.8 66 4.3 ESE 17 24 9 13 - - 0.0
22/04:00pm 26.2 25.8 18.9 64 4.7 ESE 19 30 10 16 - - 0.0
22/03:30pm 26.5 26.0 18.6 62 5.0 ESE 19 24 10 13 - - 0.0
22/03:00pm 27.0 27.2 18.6 60 5.4 SE 15 24 8 13 - - 0.0
22/02:30pm 26.9 26.3 18.5 60 5.4 ESE 19 26 10 14 - - 0.0
22/02:00pm 26.9 26.3 18.5 60 5.4 ESE 19 26 10 14 - - 0.0
22/01:30pm 27.0 26.5 18.6 60 5.4 E 19 28 10 15 - - 0.0
22/01:00pm 27.1 26.6 17.8 56 5.9 ESE 17 28 9 15 - - 0.0
22/12:30pm 26.8 26.8 18.1 59 5.5 ESE 15 24 8 13 - - 0.0
22/12:00pm 26.5 26.9 18.9 63 4.9 ESE 15 22 8 12 - - 0.0
22/11:30am 26.6 27.5 19.2 64 4.8 ESE 13 22 7 12 - - 0.0
22/11:00am 26.1 27.4 20.2 70 3.8 SSE 13 17 7 9 - - 0.0
22/10:30am 25.3 26.4 19.7 71 3.6 S 13 20 7 11 - - 0.0
22/10:00am 25.4 26.6 20.0 72 3.5 SSE 13 19 7 10 - - 0.0
22/09:30am 24.6 25.7 19.7 74 3.2 SSE 13 17 7 9 - - 0.0
22/09:00am 24.2 25.7 19.7 76 2.9 SSE 11 15 6 8 - - 5.4
22/08:30am 23.4 24.8 20.3 83 2.0 SSE 13 19 7 10 - - 5.4
22/08:00am 22.6 24.6 19.9 85 1.7 S 9 13 5 7 - - 5.4
22/07:30am 21.5 25.4 20.3 93 0.8 CALM 0 6 0 3 - - 5.4
22/07:00am 21.0 23.4 19.7 92 0.8 SSW 6 9 3 5 - - 5.4
22/06:30am 21.3 23.7 20.1 93 0.8 SSE 7 9 4 5 - - 5.4
22/06:00am 21.6 23.4 19.5 88 1.3 S 9 11 5 6 - - 5.4
22/05:30am 21.1 23.2 19.4 90 1.1 SSW 7 11 4 6 - - 5.4
22/05:00am 21.3 23.4 19.4 89 1.2 S 7 11 4 6 - - 5.4
22/04:30am 21.8 23.7 19.7 88 1.3 SSW 9 15 5 8 - - 5.4
22/04:00am 22.0 24.5 20.3 90 1.1 S 7 15 4 8 - - 5.4
22/03:30am 22.0 24.5 20.3 90 1.1 S 7 11 4 6 - - 5.4
22/03:00am 22.0 24.8 20.5 91 1.0 S 6 9 3 5 - - 5.4
22/02:30am 22.0 23.9 20.5 91 1.0 SSW 11 15 6 8 - - 5.4
22/02:00am 22.1 23.6 20.6 91 1.0 S 13 19 7 10 - - 5.4
22/01:30am 22.1 23.3 20.7 92 0.9 S 15 20 8 11 - - 5.4
22/01:00am 21.9 24.5 21.2 96 0.5 SSW 9 15 5 8 - - 5.4
22/12:30am 21.8 24.7 21.1 96 0.5 SSW 7 11 4 6 - - 5.2
22/12:00am 21.8 23.6 21.1 96 0.5 S 13 26 7 14 - - 3.8
 
Date/Time
EST
Temp
°C
App
Temp
°C
Dew
Point
°C
Rel
Hum
%
Delta-T
°C
Wind Press
QNH
hPa
Press
MSL
hPa
Rain since
9am
mm
Dir  Spd
km/h
Gust
km/h
Spd
kts
Gust
kts
21/11:30pm 21.9 24.5 21.2 96 0.5 S 9 15 5 8 - - 3.2
21/11:00pm 22.0 23.8 21.2 95 0.5 S 13 17 7 9 - - 2.8
21/10:30pm 22.3 24.2 21.3 94 0.7 S 13 19 7 10 - - 2.6
21/10:00pm 22.3 25.0 21.3 94 0.7 SE 9 13 5 7 - - 2.6
21/09:30pm 22.4 25.5 21.4 94 0.7 ESE 7 11 4 6 - - 2.6
21/09:00pm 22.6 25.7 21.4 93 0.8 SE 7 11 4 6 - - 2.6
21/08:30pm 22.4 25.0 21.2 93 0.8 SSW 9 11 5 6 - - 2.6
21/08:00pm 22.7 25.1 21.5 93 0.8 S 11 20 6 11 - - 2.4
21/07:30pm 22.8 26.8 22.0 95 0.5 SSW 4 9 2 5 - - 2.2
21/07:00pm 22.7 25.9 21.7 94 0.7 SSW 7 11 4 6 - - 2.2
21/06:30pm 23.0 25.8 21.6 92 0.9 SSW 9 13 5 7 - - 1.6
21/06:00pm 23.1 26.1 21.9 93 0.8 SSW 9 11 5 6 - - 1.4
21/05:30pm 23.3 26.5 21.7 91 1.1 SSE 7 15 4 8 - - 1.4
21/05:00pm 23.7 25.1 21.8 89 1.3 ESE 17 28 9 15 - - 1.2
21/04:30pm 25.4 27.4 21.5 79 2.6 SE 13 19 7 10 - - 0.6
21/04:00pm 25.3 27.5 21.8 81 2.3 S 13 20 7 11 - - 0.6
21/03:30pm 25.7 27.9 21.8 79 2.6 SE 13 19 7 10 - - 0.6
21/03:00pm 25.8 28.0 21.9 79 2.6 SSE 13 26 7 14 - - 0.6
21/02:30pm 24.9 28.6 22.6 87 1.5 SSE 7 13 4 7 - - 0.6
21/02:00pm 25.3 27.2 22.0 82 2.2 SSW 15 22 8 12 - - 0.4
21/01:30pm 25.0 26.6 22.1 84 1.9 S 17 22 9 12 - - 0.4
21/01:00pm 26.3 27.2 21.5 75 3.2 ESE 19 28 10 15 - - 0.4
21/12:30pm 26.4 28.9 22.5 79 2.6 S 13 20 7 11 - - 0.4
21/12:00pm 27.0 28.9 22.0 74 3.4 SE 15 22 8 12 - - 0.2
21/11:30am 25.7 28.3 22.0 80 2.5 SSE 11 19 6 10 - - 0.2
21/11:00am 24.9 27.5 22.0 84 1.9 SSE 11 19 6 10 - - 0.2
21/10:30am 24.9 27.4 22.4 86 1.7 SSE 13 20 7 11 - - 0.2
21/10:00am 24.5 28.0 22.8 90 1.1 SSW 9 11 5 6 - - 0.0
21/09:30am 23.6 27.1 22.2 92 0.9 SE 7 11 4 6 - - 0.0
21/09:00am 23.5 26.0 21.8 90 1.1 SSE 11 17 6 9 - - 10.6
21/08:30am 24.0 26.3 21.3 85 1.8 SSE 11 19 6 10 - - 10.4
21/08:00am 23.7 26.4 21.4 87 1.5 S 9 15 5 8 - - 10.4
21/07:30am 23.0 25.9 21.1 89 1.2 SSE 7 11 4 6 - - 10.4
21/07:00am 22.9 25.4 21.0 89 1.2 SSE 9 17 5 9 - - 10.4
21/06:30am 22.5 25.3 20.8 90 1.1 S 7 11 4 6 - - 10.4
21/06:00am 22.6 25.1 21.1 91 1.0 SSE 9 11 5 6 - - 10.4
21/05:30am 22.5 25.4 21.0 91 1.0 SSE 7 11 4 6 - - 10.4
21/05:00am 22.4 24.0 20.7 90 1.1 S 13 17 7 9 - - 10.4
21/04:30am 22.6 25.0 20.9 90 1.1 S 9 13 5 7 - - 10.4
21/04:00am 22.6 25.5 21.1 91 1.0 SSE 7 13 4 7 - - 10.4
21/03:30am 22.5 25.0 21.0 91 1.0 S 9 15 5 8 - - 10.2
21/03:00am 22.5 25.0 21.1 92 0.9 S 9 15 5 8 - - 10.2
21/02:30am 22.5 25.9 21.0 91 1.0 SE 4 7 2 4 - - 10.2
21/02:00am 22.8 25.3 21.1 90 1.1 S 9 13 5 7 - - 10.2
21/01:30am 22.8 25.1 21.3 91 1.0 S 11 17 6 9 - - 10.2
21/01:00am 22.6 25.6 21.2 92 0.9 S 7 9 4 5 - - 10.2
21/12:30am 22.7 25.9 21.3 92 0.9 SE 6 9 3 5 - - 10.2
21/12:00am 22.6 25.6 21.2 92 0.9 SSW 7 11 4 6 - - 10.2
 
Date/Time
EST
Temp
°C
App
Temp
°C
Dew
Point
°C
Rel
Hum
%
Delta-T
°C
Wind Press
QNH
hPa
Press
MSL
hPa
Rain since
9am
mm
Dir  Spd
km/h
Gust
km/h
Spd
kts
Gust
kts
20/11:30pm 22.6 25.3 21.4 93 0.8 S 9 11 5 6 - - 10.2
20/11:00pm 22.3 25.6 21.5 95 0.5 SSW 6 7 3 4 - - 10.2
20/10:30pm 22.6 26.4 21.6 94 0.7 S 4 7 2 4 - - 10.2
20/10:00pm 23.0 25.9 21.8 93 0.8 SSE 9 13 5 7 - - 9.8
20/09:30pm 22.7 25.5 21.5 93 0.8 S 9 11 5 6 - - 9.8
20/09:00pm 23.0 25.5 21.8 93 0.8 SSW 11 15 6 8 - - 9.8
20/08:30pm 23.1 25.8 22.1 94 0.7 S 11 15 6 8 - - 9.8
20/08:00pm 23.0 25.7 22.2 95 0.5 SSW 11 17 6 9 - - 9.8
20/07:30pm 22.9 25.9 21.9 94 0.7 SSE 9 17 5 9 - - 9.6

Other Formats:

Comma delimited format used in spreadsheet applications
http://www.bom.gov.au/fwo/IDQ60801/IDQ60801.94288.axf

JavaScript Object Notation format (JSON) in row-major order
http://www.bom.gov.au/fwo/IDQ60801/IDQ60801.94288.json